createdAt,value
2023-01-20T00:02:37.759Z,14.50
2023-01-20T00:05:51.985Z,15.20
2023-01-20T00:09:00.619Z,13.40
2023-01-20T00:12:05.655Z,10.85
2023-01-20T00:15:11.511Z,10.85
2023-01-20T00:18:16.632Z,12.05
2023-01-20T00:21:22.141Z,8.55
2023-01-20T00:24:26.904Z,9.80
2023-01-20T00:27:31.799Z,11.60
2023-01-20T00:30:36.888Z,10.73
2023-01-20T00:33:42.301Z,10.52
2023-01-20T00:36:46.902Z,11.25
2023-01-20T00:39:51.537Z,10.10
2023-01-20T00:42:56.120Z,12.48
2023-01-20T00:46:00.987Z,13.95
2023-01-20T00:49:05.921Z,16.27
2023-01-20T00:52:10.487Z,15.95
2023-01-20T00:55:15.495Z,18.88
2023-01-20T00:58:20.761Z,21.52
2023-01-20T01:01:25.423Z,21.42
2023-01-20T01:04:30.189Z,21.70
2023-01-20T01:07:35.119Z,20.80
2023-01-20T01:10:40.788Z,25.23
2023-01-20T01:13:45.671Z,26.75
2023-01-20T01:16:50.271Z,26.80
2023-01-20T01:19:54.656Z,27.52
2023-01-20T01:22:59.282Z,27.08
2023-01-20T01:26:04.909Z,25.48
2023-01-20T01:29:09.483Z,30.02
2023-01-20T01:32:14.489Z,30.42
2023-01-20T01:35:18.889Z,31.60
2023-01-20T01:38:30.312Z,33.53
2023-01-20T01:41:42.957Z,33.00
2023-01-20T01:45:10.512Z,31.33
2023-01-20T01:48:15.762Z,34.72
2023-01-20T01:51:25.980Z,29.90
2023-01-20T01:54:36.438Z,28.55
2023-01-20T01:57:41.660Z,29.27
2023-01-20T02:00:47.310Z,28.92
2023-01-20T02:04:13.368Z,24.90
2023-01-20T02:07:20.702Z,28.98
2023-01-20T02:10:25.900Z,30.05
2023-01-20T02:13:30.554Z,28.98
2023-01-20T02:16:44.529Z,30.95
2023-01-20T02:20:15.971Z,26.85
2023-01-20T02:24:24.393Z,25.98
2023-01-20T02:27:47.831Z,29.80
2023-01-20T02:31:41.815Z,23.45
2023-01-20T02:34:59.183Z,22.15
2023-01-20T02:38:12.083Z,23.70
2023-01-20T02:41:26.714Z,23.60
2023-01-20T02:45:00.591Z,23.75
2023-01-20T02:48:30.843Z,27.80
2023-01-20T02:52:11.209Z,25.70
2023-01-20T02:55:26.208Z,25.98
2023-01-20T02:58:59.514Z,25.80
2023-01-20T03:02:13.771Z,23.02
2023-01-20T03:05:30.596Z,25.58
2023-01-20T03:08:36.802Z,23.80
2023-01-20T03:11:51.060Z,26.75
2023-01-20T03:14:55.637Z,24.65
2023-01-20T03:18:00.661Z,29.52
2023-01-20T03:21:08.878Z,24.60
2023-01-20T03:24:13.708Z,24.38
2023-01-20T03:27:18.556Z,23.55
2023-01-20T03:30:24.943Z,23.55
2023-01-20T03:33:29.132Z,24.40
2023-01-20T03:36:34.569Z,25.67
2023-01-20T03:39:39.996Z,30.85
2023-01-20T03:43:24.486Z,28.98
2023-01-20T03:46:44.780Z,28.02
2023-01-20T03:49:54.992Z,26.42
2023-01-20T03:53:45.541Z,26.02
2023-01-20T03:57:04.198Z,29.75
2023-01-20T04:00:10.758Z,32.38
2023-01-20T04:03:31.679Z,33.03
2023-01-20T04:06:37.686Z,34.88
2023-01-20T04:09:48.825Z,33.63
2023-01-20T04:12:53.981Z,37.50
2023-01-20T04:15:59.752Z,36.00
2023-01-20T04:19:04.360Z,36.33
2023-01-20T04:22:39.038Z,39.55
2023-01-20T04:25:44.239Z,42.17
2023-01-20T04:28:48.858Z,43.72
2023-01-20T04:32:01.857Z,46.40
2023-01-20T04:35:07.161Z,46.30
2023-01-20T04:38:12.010Z,42.03
2023-01-20T04:41:16.457Z,52.83
2023-01-20T04:44:20.648Z,46.13
2023-01-20T04:47:25.258Z,40.30
2023-01-20T04:50:30.357Z,44.00
2023-01-20T04:53:35.583Z,44.42
2023-01-20T04:56:39.885Z,57.35
2023-01-20T04:59:44.518Z,49.00
2023-01-20T05:02:49.589Z,47.65
2023-01-20T05:05:55.248Z,47.15
2023-01-20T05:08:59.966Z,39.63
2023-01-20T05:12:05.323Z,42.50
2023-01-20T05:15:10.796Z,48.20
2023-01-20T05:18:15.610Z,46.65
2023-01-20T05:21:20.171Z,48.25
2023-01-20T05:24:24.871Z,41.67
2023-01-20T05:27:29.319Z,41.85
2023-01-20T05:30:34.248Z,46.22
2023-01-20T05:33:39.958Z,40.55
2023-01-20T05:36:44.718Z,45.28
2023-01-20T05:39:49.473Z,40.65
2023-01-20T05:42:54.083Z,41.03
2023-01-20T05:45:59.056Z,42.58
2023-01-20T05:49:03.877Z,36.90
2023-01-20T05:52:08.611Z,36.92
2023-01-20T05:55:13.674Z,36.95
2023-01-20T05:58:18.254Z,41.92
2023-01-20T06:01:23.018Z,38.35
2023-01-20T06:04:27.767Z,36.00
2023-01-20T06:07:32.588Z,33.92
2023-01-20T06:10:37.592Z,36.20
2023-01-20T06:13:42.240Z,32.45
2023-01-20T06:16:46.799Z,29.45
2023-01-20T06:19:51.544Z,31.10
2023-01-20T06:22:56.379Z,32.28
2023-01-20T06:26:11.261Z,41.67
2023-01-20T06:29:15.759Z,38.20
2023-01-20T06:32:20.558Z,38.60
2023-01-20T06:35:25.637Z,38.20
2023-01-20T06:38:34.110Z,31.48
2023-01-20T06:41:38.911Z,32.15
2023-01-20T06:44:43.838Z,30.85
2023-01-20T06:47:51.315Z,33.92
2023-01-20T06:51:12.325Z,32.83
2023-01-20T06:54:17.223Z,29.52
2023-01-20T06:57:21.792Z,29.58
2023-01-20T07:00:26.826Z,30.02
2023-01-20T07:03:31.709Z,30.85
2023-01-20T07:06:41.296Z,41.58
2023-01-20T07:09:45.957Z,44.10
2023-01-20T07:12:50.884Z,42.35
2023-01-20T07:15:55.736Z,43.80
2023-01-20T07:19:00.310Z,42.45
2023-01-20T07:22:04.868Z,40.67
2023-01-20T07:25:10.078Z,37.22
2023-01-20T07:28:14.886Z,38.45
2023-01-20T07:31:22.976Z,36.78
2023-01-20T07:34:27.763Z,36.72
2023-01-20T07:37:32.209Z,32.55
2023-01-20T07:40:36.451Z,33.55
2023-01-20T07:43:41.300Z,39.72
2023-01-20T07:46:46.115Z,45.10
2023-01-20T07:49:50.781Z,43.30
2023-01-20T07:52:57.868Z,44.67
2023-01-20T07:56:11.448Z,46.30
2023-01-20T07:59:16.297Z,42.90
2023-01-20T08:02:21.218Z,37.13
2023-01-20T08:05:26.093Z,36.08
2023-01-20T08:08:32.764Z,40.95
2023-01-20T08:11:37.227Z,40.00
2023-01-20T08:14:42.054Z,44.30
2023-01-20T08:17:46.889Z,45.90
2023-01-20T08:20:51.988Z,43.80
2023-01-20T08:24:01.498Z,45.20
2023-01-20T08:27:06.259Z,44.17
2023-01-20T08:30:12.229Z,53.10
2023-01-20T08:33:16.806Z,47.13
2023-01-20T08:36:26.393Z,51.25
2023-01-20T08:39:30.710Z,42.28
2023-01-20T08:42:37.331Z,45.20
2023-01-20T08:45:43.714Z,47.67
2023-01-20T08:48:50.641Z,51.72
2023-01-20T08:51:56.289Z,49.90
2023-01-20T08:55:01.222Z,53.25
2023-01-20T08:58:06.023Z,56.38
2023-01-20T09:01:20.297Z,49.67
2023-01-20T09:04:25.095Z,48.25
2023-01-20T09:07:30.175Z,47.55
2023-01-20T09:10:35.717Z,49.95
2023-01-20T09:13:40.520Z,44.30
2023-01-20T09:16:45.634Z,42.28
2023-01-20T09:19:50.170Z,43.10
2023-01-20T09:22:55.292Z,42.47
2023-01-20T09:26:01.629Z,42.42
2023-01-20T09:29:13.342Z,49.30
2023-01-20T09:32:18.190Z,44.28
2023-01-20T09:35:23.137Z,44.03
2023-01-20T09:38:48.843Z,43.65
2023-01-20T09:42:12.213Z,40.22
2023-01-20T09:45:26.228Z,38.05
2023-01-20T09:49:20.149Z,40.08
2023-01-20T09:52:52.861Z,44.10
2023-01-20T09:56:20.606Z,37.13
2023-01-20T09:59:37.494Z,39.55
2023-01-20T10:02:49.472Z,40.38
2023-01-20T10:05:58.538Z,38.88
2023-01-20T10:09:36.411Z,42.60
2023-01-20T10:13:05.716Z,42.25
2023-01-20T10:16:13.230Z,42.22
2023-01-20T10:19:29.544Z,39.35
2023-01-20T10:23:01.623Z,36.28
2023-01-20T10:26:25.086Z,39.85
2023-01-20T10:29:43.793Z,41.40
2023-01-20T10:33:00.521Z,41.85
2023-01-20T10:36:12.952Z,36.47
2023-01-20T10:39:47.125Z,43.70
2023-01-20T10:42:59.523Z,38.92
2023-01-20T10:46:20.051Z,39.03
2023-01-20T10:50:04.556Z,42.08
2023-01-20T10:56:55.465Z,40.28
2023-01-20T11:00:04.811Z,40.25
2023-01-20T11:03:17.898Z,36.83
2023-01-20T11:06:26.881Z,36.67
2023-01-20T11:09:41.840Z,38.95
2023-01-20T11:12:51.507Z,35.38
2023-01-20T11:16:11.502Z,36.75
2023-01-20T11:19:16.391Z,38.35
2023-01-20T11:22:36.547Z,38.80
2023-01-20T11:25:41.107Z,34.60
2023-01-20T11:28:51.962Z,36.40
2023-01-20T11:31:57.076Z,38.05
2023-01-20T11:35:20.603Z,35.10
2023-01-20T11:38:33.057Z,43.53
2023-01-20T11:41:38.283Z,36.63
2023-01-20T11:44:44.964Z,33.85
2023-01-20T11:48:19.293Z,33.20
2023-01-20T11:51:25.697Z,33.75
2023-01-20T11:54:30.752Z,34.97
2023-01-20T11:57:37.966Z,37.45
2023-01-20T12:00:44.246Z,37.80
2023-01-20T12:04:21.519Z,36.08
2023-01-20T12:07:35.818Z,35.55
2023-01-20T12:10:41.398Z,36.20
2023-01-20T12:14:19.761Z,34.88
2023-01-20T12:17:51.799Z,34.88
2023-01-20T12:21:17.762Z,32.40
2023-01-20T12:25:06.698Z,31.77
2023-01-20T12:28:30.352Z,36.72
2023-01-20T12:31:35.255Z,29.73
2023-01-20T12:34:39.898Z,30.55
2023-01-20T12:38:00.251Z,31.02
2023-01-20T12:41:13.695Z,32.13
2023-01-20T12:44:47.978Z,28.48
2023-01-20T12:48:36.915Z,28.98
2023-01-20T12:52:09.412Z,29.38
2023-01-20T12:55:57.092Z,29.27
2023-01-20T12:59:08.464Z,31.05
2023-01-20T13:02:46.310Z,29.67
2023-01-20T13:06:23.345Z,29.10
2023-01-20T13:09:51.105Z,25.83
2023-01-20T13:13:04.078Z,23.23
2023-01-20T13:17:01.862Z,24.27
2023-01-20T13:20:23.723Z,23.67
2023-01-20T13:23:36.980Z,25.95
2023-01-20T13:26:41.918Z,25.75
2023-01-20T13:29:55.588Z,26.63
2023-01-20T13:33:08.748Z,26.67
2023-01-20T13:36:24.718Z,26.83
2023-01-20T13:39:29.328Z,26.50
2023-01-20T13:42:36.747Z,26.50
2023-01-20T13:45:41.576Z,26.98
2023-01-20T13:49:15.137Z,24.55
2023-01-20T13:52:51.020Z,26.52
2023-01-20T13:56:00.869Z,23.40
2023-01-20T13:59:08.566Z,24.88
2023-01-20T14:02:21.631Z,24.08
2023-01-20T14:05:31.263Z,27.20
2023-01-20T14:08:45.017Z,28.52
2023-01-20T14:11:57.658Z,26.98
2023-01-20T14:15:03.306Z,26.40
2023-01-20T14:18:17.878Z,27.40
2023-01-20T14:21:29.851Z,23.52
2023-01-20T14:24:37.861Z,22.92
2023-01-20T14:27:44.609Z,22.88
2023-01-20T14:30:50.862Z,21.95
2023-01-20T14:34:18.365Z,22.50
2023-01-20T14:37:36.208Z,19.58
2023-01-20T14:40:42.933Z,23.35
2023-01-20T14:43:47.356Z,22.40
2023-01-20T14:46:56.396Z,21.27
2023-01-20T14:50:02.693Z,22.45
2023-01-20T14:53:07.304Z,20.50
2023-01-20T14:56:20.829Z,20.65
2023-01-20T14:59:26.700Z,22.00
2023-01-20T15:02:35.514Z,22.80
2023-01-20T15:06:00.361Z,24.08
2023-01-20T15:09:24.328Z,24.40
2023-01-20T15:12:52.510Z,22.75
2023-01-20T15:16:18.930Z,25.33
2023-01-20T15:19:34.709Z,23.73
2023-01-20T15:22:43.540Z,23.23
2023-01-20T15:25:51.042Z,22.77
2023-01-20T15:28:57.412Z,24.40
2023-01-20T15:32:11.377Z,23.73
2023-01-20T15:35:20.991Z,25.50
2023-01-20T15:38:30.707Z,23.48
2023-01-20T15:41:36.041Z,27.35
2023-01-20T15:44:41.328Z,27.98
2023-01-20T15:47:47.201Z,28.55
2023-01-20T15:50:52.202Z,31.63
2023-01-20T15:53:57.178Z,29.17
2023-01-20T15:57:02.137Z,30.83
2023-01-20T16:00:15.037Z,25.17
2023-01-20T16:03:20.305Z,28.73
2023-01-20T16:06:31.811Z,31.30
2023-01-20T16:09:38.612Z,31.98
2023-01-20T16:12:46.010Z,31.42
2023-01-20T16:15:50.812Z,30.75
2023-01-20T16:18:55.681Z,29.98
2023-01-20T16:22:00.345Z,31.05
2023-01-20T16:25:05.294Z,33.42
2023-01-20T16:28:22.874Z,33.63
2023-01-20T16:31:28.885Z,33.17
2023-01-20T16:34:34.814Z,31.95
2023-01-20T16:37:39.836Z,33.47
2023-01-20T16:41:11.825Z,32.97
2023-01-20T16:44:17.417Z,37.72
2023-01-20T16:47:22.675Z,39.75
2023-01-20T16:50:33.914Z,39.92
2023-01-20T16:53:39.807Z,38.42
2023-01-20T16:56:44.734Z,36.22
2023-01-20T16:59:49.467Z,39.30
2023-01-20T17:02:54.385Z,41.58
2023-01-20T17:05:58.987Z,41.42
2023-01-20T17:09:05.257Z,48.90
2023-01-20T17:12:09.852Z,45.03
2023-01-20T17:15:14.732Z,50.03
2023-01-20T17:18:19.304Z,47.95
2023-01-20T17:21:26.043Z,46.38
2023-01-20T17:24:32.983Z,46.35
2023-01-20T17:27:38.136Z,45.17
2023-01-20T17:30:42.882Z,43.22
2023-01-20T17:33:48.247Z,46.60
2023-01-20T17:36:53.158Z,46.63
2023-01-20T17:39:59.810Z,46.63
2023-01-20T17:43:05.297Z,49.92
2023-01-20T17:46:27.752Z,50.65
2023-01-20T17:49:32.612Z,48.10
2023-01-20T17:52:37.433Z,50.67
2023-01-20T17:55:41.792Z,42.47
2023-01-20T17:58:47.446Z,43.95
2023-01-20T18:01:52.486Z,45.63
2023-01-20T18:04:57.541Z,47.88
2023-01-20T18:08:02.743Z,45.50
2023-01-20T18:11:11.752Z,49.83
2023-01-20T18:14:16.598Z,48.63
2023-01-20T18:17:21.582Z,43.00
2023-01-20T18:20:26.287Z,38.17
2023-01-20T18:23:30.858Z,41.92
2023-01-20T18:26:38.820Z,40.65
2023-01-20T18:29:43.300Z,39.63
2023-01-20T18:32:48.245Z,40.30
2023-01-20T18:35:52.852Z,41.78
2023-01-20T18:39:06.994Z,39.70
2023-01-20T18:42:11.701Z,36.72
2023-01-20T18:45:16.722Z,34.55
2023-01-20T18:48:22.912Z,38.63
2023-01-20T18:51:29.976Z,37.60
2023-01-20T18:54:37.228Z,44.78
2023-01-20T18:57:42.291Z,41.83
2023-01-20T19:00:47.181Z,43.67
2023-01-20T19:03:52.589Z,41.53
2023-01-20T19:06:57.501Z,40.60
2023-01-20T19:10:02.415Z,38.00
2023-01-20T19:13:07.095Z,53.95
2023-01-20T19:16:13.132Z,52.85
2023-01-20T19:19:19.082Z,46.67
2023-01-20T19:22:24.213Z,41.60
2023-01-20T19:25:31.669Z,44.85
2023-01-20T19:28:36.603Z,42.22
2023-01-20T19:31:41.816Z,48.10
2023-01-20T19:34:47.164Z,47.20
2023-01-20T19:37:52.150Z,43.17
2023-01-20T19:41:12.499Z,51.85
2023-01-20T19:44:17.525Z,44.42
2023-01-20T19:47:22.274Z,49.08
2023-01-20T19:50:27.153Z,48.10
2023-01-20T19:53:32.870Z,49.00
2023-01-20T19:56:37.899Z,48.13
2023-01-20T19:59:42.835Z,45.08
2023-01-20T20:02:47.706Z,45.33
2023-01-20T20:05:52.674Z,39.22
2023-01-20T20:09:02.055Z,42.08
2023-01-20T20:12:07.751Z,42.53
2023-01-20T20:15:12.731Z,44.83
2023-01-20T20:18:17.577Z,44.95
2023-01-20T20:21:23.344Z,44.78
2023-01-20T20:24:27.912Z,42.53
2023-01-20T20:27:32.720Z,38.55
2023-01-20T20:30:42.165Z,42.42
2023-01-20T20:33:50.065Z,45.22
2023-01-20T20:36:55.000Z,50.40
2023-01-20T20:39:59.645Z,47.05
2023-01-20T20:43:05.485Z,48.45
2023-01-20T20:46:16.227Z,58.50
2023-01-20T20:49:21.305Z,47.58
2023-01-20T20:52:26.311Z,48.72
2023-01-20T20:55:31.427Z,50.22
2023-01-20T20:58:38.530Z,48.53
2023-01-20T21:01:46.012Z,45.50
2023-01-20T21:04:51.373Z,46.90
2023-01-20T21:07:55.962Z,38.65
2023-01-20T21:11:02.657Z,45.95
2023-01-20T21:14:07.600Z,47.22
2023-01-20T21:17:12.327Z,45.63
2023-01-20T21:20:17.635Z,47.95
2023-01-20T21:23:23.044Z,47.55
2023-01-20T21:26:30.479Z,46.35
2023-01-20T21:29:35.719Z,42.53
2023-01-20T21:32:40.988Z,37.78
2023-01-20T21:35:46.136Z,40.05
2023-01-20T21:38:51.867Z,43.67
2023-01-20T21:41:57.045Z,37.85
2023-01-20T21:45:01.811Z,41.58
2023-01-20T21:48:26.799Z,37.78
2023-01-20T21:51:50.611Z,43.80
2023-01-20T21:54:55.911Z,43.53
2023-01-20T21:58:01.228Z,36.28
2023-01-20T22:01:05.961Z,43.53
2023-01-20T22:04:10.792Z,40.45
2023-01-20T22:07:17.401Z,39.58
2023-01-20T22:10:21.902Z,38.63
2023-01-20T22:13:26.657Z,39.95
2023-01-20T22:16:32.303Z,46.10
2023-01-20T22:19:37.706Z,43.70
2023-01-20T22:22:42.644Z,42.05
2023-01-20T22:25:47.238Z,46.05
2023-01-20T22:28:51.939Z,45.08
2023-01-20T22:31:59.378Z,47.42
2023-01-20T22:35:04.713Z,44.60
2023-01-20T22:38:09.467Z,43.08
2023-01-20T22:41:15.003Z,53.58
2023-01-20T22:44:19.716Z,53.78
2023-01-20T22:47:24.514Z,50.83
2023-01-20T22:50:28.952Z,54.88
2023-01-20T22:53:33.652Z,62.13
2023-01-20T22:56:39.181Z,52.85
2023-01-20T22:59:43.790Z,53.47
2023-01-20T23:02:48.741Z,55.05
2023-01-20T23:05:58.870Z,60.58
2023-01-20T23:09:10.487Z,51.90
2023-01-20T23:12:15.527Z,47.35
2023-01-20T23:15:20.328Z,61.30
2023-01-20T23:18:25.514Z,61.15
2023-01-20T23:21:29.911Z,58.60
2023-01-20T23:24:34.218Z,52.65
2023-01-20T23:27:38.763Z,63.42
2023-01-20T23:30:43.879Z,64.25
2023-01-20T23:33:49.388Z,76.78
2023-01-20T23:36:54.047Z,73.25
2023-01-20T23:39:58.891Z,70.00
2023-01-20T23:43:03.523Z,67.57
2023-01-20T23:46:09.449Z,65.78
2023-01-20T23:49:14.280Z,63.88
2023-01-20T23:52:20.249Z,66.47
2023-01-20T23:55:24.714Z,67.18
2023-01-20T23:58:30.477Z,69.15
